Terminal Aerodrome Forecast
Issued by NWS

Home | Current Version | Previous Version | Text Only | Print | Product List | Glossary On
Versions: 1 2 3 4 5 6 7 8 9 10 11 12 13 14 15 16 17 18 19 20 21 22 23 24 25 26
410
FTUS43 KMQT 232324
TAFCMX
TAF
KCMX 232324Z 2400/2424 31005KT P6SM OVC010
      TEMPO 2401/2402 BKN008
     FM240200 00000KT 2SM BR OVC005
     FM240400 00000KT 1/2SM FG OVC003
     FM240900 28003KT 1/4SM FG OVC003
     FM241600 29003KT 1SM BR OVC005
     FM242200 33003KT 3SM BR OVC008=

USA.gov is the U.S. government's official web portal to all federal, state and local government web resources and services.